Time;durP1;ratioP1;P1;durP2;ratioP2;P2;SDS_P1;SDS_P2;PMS_P1;PMS_P2;Temp;Humidity;BMP_temperature;BMP_pressure;BME280_temperature;BME280_humidity;BME280_pressure;Samples;Min_cycle;Max_cycle;Signal;HPM_P1;HPM_P2
2022/07/07 00:01:36;;;;;;;2.67;1.10;;;;;;;15.45;81.67;101388.69;4888993;29;20040;-75
2022/07/07 00:04:03;;;;;;;7.40;1.90;;;;;;;15.28;82.50;101395.28;4893163;29;20031;-76
2022/07/07 00:06:29;;;;;;;4.95;1.20;;;;;;;15.16;83.14;101391.97;4907910;29;20538;-76
2022/07/07 00:08:55;;;;;;;8.45;1.52;;;;;;;15.15;83.68;101379.31;4886574;29;20103;-75
2022/07/07 00:11:21;;;;;;;5.55;1.60;;;;;;;15.23;83.41;101383.44;4874568;29;20106;-74
2022/07/07 00:13:47;;;;;;;10.02;1.85;;;;;;;15.33;84.22;101392.56;4919481;29;20039;-75
2022/07/07 00:16:13;;;;;;;5.22;1.50;;;;;;;15.38;83.97;101377.13;4904112;29;20028;-76
2022/07/07 00:18:38;;;;;;;4.05;1.30;;;;;;;15.33;83.85;101381.53;4907548;29;20370;-75
2022/07/07 00:21:04;;;;;;;9.48;1.55;;;;;;;15.32;84.02;101381.81;4896752;29;20035;-75
2022/07/07 00:23:31;;;;;;;3.88;1.33;;;;;;;15.34;84.07;101387.84;4898071;29;20048;-75
2022/07/07 00:25:56;;;;;;;12.23;2.00;;;;;;;15.37;84.03;101384.56;4909059;29;20020;-76
2022/07/07 00:28:22;;;;;;;6.05;1.98;;;;;;;15.33;84.47;101391.72;4907520;29;20071;-78
2022/07/07 00:30:47;;;;;;;4.93;1.52;;;;;;;15.31;84.73;101380.16;4873808;29;20036;-75
2022/07/07 00:33:13;;;;;;;5.97;1.48;;;;;;;15.32;84.76;101390.06;4888949;29;20036;-75
2022/07/07 00:35:38;;;;;;;4.40;1.70;;;;;;;15.27;84.83;101374.34;4912969;29;20039;-76
2022/07/07 00:38:04;;;;;;;7.95;1.85;;;;;;;15.26;85.26;101369.09;4903067;29;20036;-76
2022/07/07 00:40:29;;;;;;;2.28;1.48;;;;;;;15.24;85.42;101371.31;4919715;29;20047;-75
2022/07/07 00:42:55;;;;;;;10.60;1.40;;;;;;;15.15;85.59;101374.59;4883297;29;20130;-75
2022/07/07 00:45:20;;;;;;;7.78;1.42;;;;;;;15.10;86.13;101377.38;4889023;29;20080;-75
2022/07/07 00:47:47;;;;;;;4.57;1.38;;;;;;;15.03;86.14;101371.31;4919115;29;20039;-76
2022/07/07 00:50:12;;;;;;;6.38;1.85;;;;;;;15.12;86.38;101385.38;4890053;29;20131;-74
2022/07/07 00:52:38;;;;;;;10.93;1.63;;;;;;;15.23;86.04;101387.03;4903559;29;20052;-74
2022/07/07 00:55:07;;;;;;;4.82;2.03;;;;;;;15.32;85.73;101373.53;4897052;29;20032;-74
2022/07/07 00:57:34;;;;;;;4.57;2.03;;;;;;;15.44;85.13;101376.84;4904187;29;20060;-75
2022/07/07 01:00:05;;;;;;;4.00;1.75;;;;;;;15.51;84.68;101382.91;4914642;29;20027;-74
2022/07/07 01:02:31;;;;;;;2.60;1.40;;;;;;;15.59;84.64;101378.75;4920123;29;20028;-74
2022/07/07 01:05:02;;;;;;;3.88;1.08;;;;;;;15.64;84.15;101384.28;4920662;29;20020;-74
2022/07/07 01:07:28;;;;;;;9.82;1.42;;;;;;;15.71;83.88;101375.72;4889689;29;20079;-75
2022/07/07 01:09:56;;;;;;;11.00;1.98;;;;;;;15.73;83.18;101379.03;4901003;29;20058;-74
2022/07/07 01:12:22;;;;;;;4.93;1.23;;;;;;;15.71;83.23;101382.06;4899556;29;20043;-75
2022/07/07 01:14:48;;;;;;;5.00;1.60;;;;;;;15.69;83.32;101378.75;4902347;29;20444;-73
2022/07/07 01:17:13;;;;;;;7.38;1.65;;;;;;;15.73;82.91;101380.97;4931854;29;20063;-75
2022/07/07 01:19:39;;;;;;;3.63;1.40;;;;;;;15.68;83.11;101376.25;4904772;29;20055;-74
2022/07/07 01:22:14;;;;;;;4.63;1.63;;;;;;;15.69;83.27;101380.69;4887557;29;20043;-74
2022/07/07 01:24:39;;;;;;;3.80;1.40;;;;;;;15.66;83.13;101384.00;4919263;29;20035;-74
2022/07/07 01:27:09;;;;;;;3.58;1.27;;;;;;;15.71;83.21;101381.22;4904359;29;20036;-74
2022/07/07 01:29:40;;;;;;;8.23;1.65;;;;;;;15.76;83.00;101395.03;4902012;29;20131;-74
2022/07/07 01:32:07;;;;;;;4.68;1.65;;;;;;;15.76;82.96;101400.53;4904008;29;20020;-73
2022/07/07 01:34:43;;;;;;;5.93;1.33;;;;;;;15.77;83.02;101398.59;4886615;29;20035;-75
2022/07/07 01:37:09;;;;;;;9.52;1.80;;;;;;;15.76;83.31;101389.50;4917635;29;20028;-75
2022/07/07 01:39:36;;;;;;;6.40;1.48;;;;;;;15.75;83.29;101387.84;4888456;29;20032;-75
2022/07/07 01:42:02;;;;;;;6.05;1.65;;;;;;;15.77;83.41;101384.81;4902555;29;20052;-76
2022/07/07 01:44:31;;;;;;;6.95;1.85;;;;;;;15.77;83.37;101391.16;4914608;29;20036;-75
2022/07/07 01:46:56;;;;;;;7.78;1.65;;;;;;;15.73;83.63;101379.03;4920842;29;20020;-75
2022/07/07 01:49:22;;;;;;;4.75;1.52;;;;;;;15.75;83.82;101382.31;4902341;29;20039;-76
2022/07/07 01:51:47;;;;;;;9.65;1.75;;;;;;;15.74;84.03;101380.69;4906818;29;20032;-75
2022/07/07 01:54:13;;;;;;;5.38;1.55;;;;;;;15.75;84.31;101381.50;4896516;29;20086;-75
2022/07/07 01:56:38;;;;;;;8.02;1.67;;;;;;;15.73;84.44;101372.69;4906210;29;20063;-75
2022/07/07 01:59:03;;;;;;;6.75;1.58;;;;;;;15.75;84.61;101376.81;4889249;29;20036;-76
2022/07/07 02:01:29;;;;;;;7.00;1.52;;;;;;;15.71;84.82;101375.72;4884256;29;20035;-75
2022/07/07 02:03:55;;;;;;;6.70;2.00;;;;;;;15.77;84.72;101385.66;4904630;29;20024;-75
2022/07/07 02:06:20;;;;;;;9.00;2.15;;;;;;;15.79;85.30;101375.19;4904846;29;20039;-76
2022/07/07 02:08:46;;;;;;;6.10;2.05;;;;;;;15.79;85.14;101377.13;4916421;29;20114;-76
2022/07/07 02:11:14;;;;;;;6.65;2.00;;;;;;;15.79;85.33;101382.66;4885609;29;20525;-75
2022/07/07 02:13:50;;;;;;;12.25;1.98;;;;;;;15.81;85.53;101385.94;4921795;29;20063;-75
2022/07/07 02:16:18;;;;;;;7.35;2.20;;;;;;;15.78;85.72;101376.28;4915814;29;20029;-75
2022/07/07 02:18:46;;;;;;;8.02;2.38;;;;;;;15.80;86.01;101379.59;4902943;29;20020;-75
2022/07/07 02:21:13;;;;;;;8.20;2.05;;;;;;;15.78;85.97;101370.78;4929997;29;20036;-74
2022/07/07 02:23:40;;;;;;;7.18;2.45;;;;;;;15.80;86.24;101379.59;4923543;29;20479;-75
2022/07/07 02:26:05;;;;;;;7.35;2.17;;;;;;;15.81;86.48;101384.03;4908999;29;20038;-75
2022/07/07 02:28:32;;;;;;;7.28;2.08;;;;;;;15.79;86.85;101383.47;4901742;29;20047;-74
2022/07/07 02:30:58;;;;;;;10.93;2.30;;;;;;;15.82;87.03;101382.91;4900536;29;20054;-76
2022/07/07 02:33:25;;;;;;;9.73;2.42;;;;;;;15.77;87.22;101377.38;4905195;29;20064;-75
2022/07/07 02:35:51;;;;;;;6.00;2.17;;;;;;;15.82;87.43;101388.41;4886360;29;20028;-75
2022/07/07 02:38:18;;;;;;;5.70;2.42;;;;;;;15.83;87.57;101384.56;4914831;29;20087;-75
2022/07/07 02:40:43;;;;;;;5.72;2.45;;;;;;;15.84;87.54;101383.47;4898166;29;20088;-75
2022/07/07 02:43:12;;;;;;;8.00;2.65;;;;;;;15.83;87.55;101387.31;4894625;29;20384;-74
2022/07/07 02:45:42;;;;;;;10.52;2.50;;;;;;;15.88;87.34;101392.81;4907874;29;20098;-76
2022/07/07 02:48:09;;;;;;;5.85;2.67;;;;;;;15.87;87.51;101391.19;4903547;29;20058;-74
2022/07/07 02:50:35;;;;;;;10.10;2.83;;;;;;;15.88;87.32;101390.06;4903064;29;20086;-73
2022/07/07 02:53:01;;;;;;;5.38;2.20;;;;;;;15.88;87.65;101387.28;4886403;29;20029;-74
2022/07/07 02:55:27;;;;;;;4.93;2.40;;;;;;;15.88;87.33;101383.72;4914526;29;21166;-75
2022/07/07 02:57:52;;;;;;;5.35;2.33;;;;;;;15.91;87.59;101401.66;4887403;29;20036;-75
2022/07/07 03:00:18;;;;;;;7.80;2.30;;;;;;;15.91;87.54;101396.13;4874685;29;20038;-74
2022/07/07 03:02:44;;;;;;;5.55;2.05;;;;;;;15.91;87.30;101396.97;4894208;29;20575;-76
2022/07/07 03:05:11;;;;;;;3.83;1.98;;;;;;;15.94;86.97;101395.56;4905733;29;20047;-76
2022/07/07 03:07:37;;;;;;;4.47;2.17;;;;;;;15.93;87.08;101399.44;4897894;29;20126;-74
2022/07/07 03:10:03;;;;;;;6.28;2.03;;;;;;;15.97;86.70;101398.59;4920820;29;20028;-75
2022/07/07 03:12:29;;;;;;;3.25;1.42;;;;;;;16.04;86.22;101401.88;4916842;29;20036;-74
2022/07/07 03:14:54;;;;;;;5.63;1.30;;;;;;;16.06;85.56;101398.84;4889075;29;20036;-74
2022/07/07 03:17:20;;;;;;;3.53;1.40;;;;;;;16.08;85.39;101388.38;4924001;29;20047;-75
2022/07/07 03:19:45;;;;;;;3.53;1.70;;;;;;;16.14;85.14;101395.53;4866207;29;20036;-75
2022/07/07 03:22:11;;;;;;;6.00;2.00;;;;;;;16.14;84.96;101387.25;4886546;29;20042;-74
2022/07/07 03:24:36;;;;;;;2.28;1.40;;;;;;;16.16;84.97;101398.81;4907060;29;20048;-74
2022/07/07 03:27:02;;;;;;;4.45;2.00;;;;;;;16.11;85.24;101375.97;4906117;29;20456;-74
2022/07/07 03:29:27;;;;;;;4.05;2.08;;;;;;;16.19;85.19;101386.41;4907781;29;20723;-74
2022/07/07 03:31:53;;;;;;;4.47;2.10;;;;;;;16.18;85.13;101380.06;4923943;29;20027;-77
2022/07/07 03:34:18;;;;;;;7.10;1.90;;;;;;;16.17;85.07;101388.63;4924126;29;20036;-74
2022/07/07 03:36:44;;;;;;;3.17;1.33;;;;;;;16.16;84.78;101382.28;4892393;29;20099;-72
2022/07/07 03:39:09;;;;;;;5.18;1.52;;;;;;;16.15;84.37;101385.31;4896800;29;20056;-73
2022/07/07 03:41:35;;;;;;;3.20;1.55;;;;;;;15.99;85.12;101393.66;4906198;29;20061;-74
2022/07/07 03:44:00;;;;;;;3.53;1.58;;;;;;;15.82;85.49;101393.94;4904374;29;20403;-75
2022/07/07 03:46:25;;;;;;;3.05;1.30;;;;;;;15.68;86.02;101393.66;4905086;29;20055;-75
2022/07/07 03:48:51;;;;;;;6.93;1.85;;;;;;;15.59;86.71;101388.97;4905896;29;20036;-75
2022/07/07 03:51:17;;;;;;;4.88;1.58;;;;;;;15.57;87.29;101391.19;4889194;29;20095;-75
2022/07/07 03:53:42;;;;;;;4.38;1.60;;;;;;;15.52;87.21;101390.06;4892383;29;20055;-75
2022/07/07 03:56:07;;;;;;;4.13;1.60;;;;;;;15.52;87.09;101394.75;4884765;29;20032;-75
2022/07/07 03:58:33;;;;;;;2.15;1.23;;;;;;;15.59;87.48;101383.44;4922111;29;20439;-75
2022/07/07 04:01:00;;;;;;;5.78;1.52;;;;;;;15.65;87.16;101390.63;4925869;29;20020;-75
2022/07/07 04:03:25;;;;;;;1.95;1.08;;;;;;;15.76;87.03;101397.78;4891475;29;20035;-75
2022/07/07 04:05:51;;;;;;;5.25;1.27;;;;;;;15.83;86.41;101406.63;4904299;29;20288;-74
2022/07/07 04:08:16;;;;;;;6.88;1.50;;;;;;;15.93;86.26;101404.94;4901937;29;20048;-75
2022/07/07 04:10:42;;;;;;;3.92;1.45;;;;;;;16.00;85.94;101398.06;4920202;29;20039;-73
2022/07/07 04:13:08;;;;;;;4.75;1.17;;;;;;;16.05;86.01;101408.25;4871217;29;20135;-75
2022/07/07 04:15:34;;;;;;;5.38;1.60;;;;;;;16.08;85.74;101393.91;4906853;29;20063;-75
2022/07/07 04:18:00;;;;;;;2.10;1.40;;;;;;;16.11;85.58;101396.09;4905101;29;20032;-74
2022/07/07 04:20:26;;;;;;;1.88;1.10;;;;;;;16.12;85.64;101397.75;4903544;29;20114;-75
2022/07/07 04:22:51;;;;;;;1.35;1.02;;;;;;;16.18;85.31;101407.66;4888951;29;20063;-73
2022/07/07 04:25:18;;;;;;;6.22;1.42;;;;;;;16.20;85.14;101399.09;4904285;29;20115;-74
2022/07/07 04:27:43;;;;;;;4.85;1.60;;;;;;;16.22;84.95;101408.75;4873421;29;20100;-75
2022/07/07 04:30:09;;;;;;;1.85;1.08;;;;;;;16.28;84.46;101412.34;4912505;29;20072;-74
2022/07/07 04:32:35;;;;;;;4.10;1.50;;;;;;;16.31;84.37;101411.78;4904916;29;20057;-75
2022/07/07 04:35:00;;;;;;;5.45;1.40;;;;;;;16.33;84.19;101411.50;4889274;29;20032;-74
2022/07/07 04:37:25;;;;;;;4.60;1.15;;;;;;;16.34;83.85;101405.69;4877920;29;20033;-75
2022/07/07 04:39:51;;;;;;;1.88;1.17;;;;;;;16.38;83.81;101405.94;4902634;29;20043;-76
2022/07/07 04:42:16;;;;;;;1.65;0.90;;;;;;;16.44;83.65;101426.91;4881452;29;20032;-75
2022/07/07 04:44:42;;;;;;;6.93;1.10;;;;;;;16.49;83.38;101435.16;4874852;29;20104;-74
2022/07/07 04:47:08;;;;;;;3.33;1.15;;;;;;;16.54;82.91;101426.88;4903955;29;20040;-74
2022/07/07 04:49:34;;;;;;;1.85;1.02;;;;;;;16.57;82.75;101431.84;4922738;29;20020;-75
2022/07/07 04:51:59;;;;;;;1.85;1.00;;;;;;;16.58;82.02;101438.19;4904828;29;20104;-74
2022/07/07 04:54:24;;;;;;;4.78;1.45;;;;;;;16.59;82.37;101434.31;4883816;29;20048;-74
2022/07/07 04:56:50;;;;;;;1.85;1.00;;;;;;;16.62;82.16;101438.44;4898522;29;20024;-75
2022/07/07 04:59:15;;;;;;;2.38;0.75;;;;;;;16.67;81.68;101442.00;4887131;29;20032;-77
2022/07/07 05:01:41;;;;;;;1.98;1.05;;;;;;;16.72;81.51;101435.66;4904996;29;20043;-76
2022/07/07 05:04:06;;;;;;;2.10;0.80;;;;;;;16.76;81.39;101450.53;4905438;29;20078;-76
2022/07/07 05:06:32;;;;;;;3.25;0.80;;;;;;;16.80;80.43;101456.31;4909107;29;20126;-76
2022/07/07 05:08:58;;;;;;;2.70;0.90;;;;;;;16.83;80.13;101462.09;4909732;29;21546;-75
2022/07/07 05:11:23;;;;;;;2.40;0.90;;;;;;;16.88;79.72;101464.88;4906516;29;20031;-74
2022/07/07 05:13:48;;;;;;;1.10;0.63;;;;;;;16.91;79.18;101453.25;4894910;29;20035;-75
2022/07/07 05:16:14;;;;;;;2.00;0.80;;;;;;;16.97;78.66;101455.97;4882280;29;20034;-75
2022/07/07 05:18:39;;;;;;;1.35;0.68;;;;;;;16.99;78.42;101459.31;4872335;29;20116;-75
2022/07/07 05:21:05;;;;;;;1.08;0.70;;;;;;;17.03;78.23;101463.16;4904995;29;20035;-74
2022/07/07 05:23:30;;;;;;;1.08;0.68;;;;;;;17.15;77.91;101468.34;4907900;29;20028;-74
2022/07/07 05:25:56;;;;;;;1.45;0.55;;;;;;;17.20;76.63;101469.13;4911410;29;20035;-75
2022/07/07 05:28:21;;;;;;;1.33;0.70;;;;;;;17.24;76.43;101470.22;4893180;29;20032;-74
2022/07/07 05:30:47;;;;;;;2.10;0.50;;;;;;;17.31;75.46;101472.66;4910588;29;20027;-75
2022/07/07 05:33:13;;;;;;;1.63;0.57;;;;;;;17.35;75.19;101478.44;4922081;29;20086;-74
2022/07/07 05:35:38;;;;;;;2.42;0.65;;;;;;;17.31;74.40;101477.38;4896557;29;20178;-75
2022/07/07 05:38:04;;;;;;;9.55;0.70;;;;;;;17.36;73.75;101491.13;4888960;29;20036;-75
2022/07/07 05:40:30;;;;;;;0.40;0.40;;;;;;;17.32;73.38;101484.53;4921145;29;20051;-75
2022/07/07 05:42:55;;;;;;;0.93;0.40;;;;;;;17.38;73.17;101484.22;4921324;29;20043;-73
2022/07/07 05:45:21;;;;;;;0.88;0.50;;;;;;;17.38;72.76;101477.88;4920993;29;20055;-74
2022/07/07 05:47:47;;;;;;;1.65;0.43;;;;;;;17.51;73.02;101492.97;4920146;29;20020;-74
2022/07/07 05:50:13;;;;;;;5.68;0.60;;;;;;;17.55;71.62;101494.91;4920562;29;20107;-73
2022/07/07 05:52:38;;;;;;;0.98;0.50;;;;;;;17.60;71.57;101505.91;4888713;29;20028;-73
2022/07/07 05:55:04;;;;;;;0.38;0.38;;;;;;;17.59;70.68;101503.44;4904183;29;20028;-75
2022/07/07 05:57:31;;;;;;;1.05;0.50;;;;;;;17.55;70.89;101494.91;4887891;29;20020;-75
2022/07/07 05:59:57;;;;;;;1.85;0.50;;;;;;;17.55;70.35;101505.97;4904721;29;20096;-75
2022/07/07 06:02:22;;;;;;;0.95;0.38;;;;;;;17.57;70.66;101494.63;4918091;29;20056;-74
2022/07/07 06:05:22;;;;;;;0.85;0.45;;;;;;;17.73;70.18;101506.41;4887515;29;20024;-74
2022/07/07 06:07:48;;;;;;;0.82;0.50;;;;;;;17.75;70.09;101496.66;4904058;29;20123;-73
2022/07/07 06:10:17;;;;;;;0.73;0.45;;;;;;;17.95;70.03;101522.56;4917401;29;20072;-75
2022/07/07 06:12:43;;;;;;;1.23;0.43;;;;;;;18.03;68.94;101526.66;4891121;29;20031;-73
2022/07/07 06:15:09;;;;;;;1.77;0.60;;;;;;;18.11;69.00;101514.97;4887940;29;20023;-74
2022/07/07 06:17:35;;;;;;;3.35;0.90;;;;;;;18.25;68.92;101531.72;4888817;29;20535;-74
2022/07/07 06:20:01;;;;;;;0.38;0.38;;;;;;;18.36;68.38;101530.50;4920010;29;20020;-74
2022/07/07 06:22:27;;;;;;;3.00;0.60;;;;;;;18.53;67.85;101535.59;4919188;29;20051;-75
2022/07/07 06:24:52;;;;;;;0.93;0.50;;;;;;;18.53;67.35;101534.75;4905325;29;20459;-77
2022/07/07 06:27:18;;;;;;;2.25;0.60;;;;;;;18.53;67.51;101549.47;4909559;29;20032;-75
2022/07/07 06:29:45;;;;;;;1.00;0.40;;;;;;;18.46;67.08;101546.19;4891513;29;20032;-75
2022/07/07 06:32:20;;;;;;;0.80;0.40;;;;;;;18.52;66.75;101550.56;4906267;29;20042;-76
2022/07/07 06:34:45;;;;;;;2.08;0.60;;;;;;;18.43;66.66;101539.31;4905870;29;20065;-75
2022/07/07 06:37:16;;;;;;;0.93;0.60;;;;;;;18.46;66.89;101551.75;4905647;29;20063;-76
2022/07/07 06:39:41;;;;;;;0.30;0.30;;;;;;;18.61;66.88;101565.41;4909672;29;20040;-76
2022/07/07 06:42:10;;;;;;;0.43;0.40;;;;;;;18.71;66.52;101570.03;4894090;29;20075;-74
2022/07/07 06:44:35;;;;;;;1.38;0.55;;;;;;;18.78;66.14;101564.16;4897040;29;20045;-77
2022/07/07 06:47:01;;;;;;;1.58;0.40;;;;;;;18.96;65.89;101568.13;4907268;29;20039;-78
2022/07/07 06:49:28;;;;;;;0.80;0.60;;;;;;;19.20;65.36;101573.66;4924576;29;20106;-75
2022/07/07 06:51:54;;;;;;;1.85;0.45;;;;;;;19.28;65.11;101573.00;4906765;29;20036;-75
2022/07/07 06:54:20;;;;;;;0.80;0.52;;;;;;;19.32;64.43;101574.06;4906718;29;20191;-74
2022/07/07 06:56:46;;;;;;;2.20;0.25;;;;;;;19.35;64.53;101576.25;4905264;29;20060;-75
2022/07/07 06:59:11;;;;;;;1.13;0.50;;;;;;;19.37;64.01;101575.94;4888541;29;20040;-77
2022/07/07 07:01:38;;;;;;;0.47;0.40;;;;;;;19.27;63.77;101571.34;4905174;29;20032;-77
2022/07/07 07:04:05;;;;;;;0.63;0.47;;;;;;;19.19;62.77;101581.16;4903520;29;20087;-77
2022/07/07 07:06:30;;;;;;;1.20;0.50;;;;;;;19.00;64.07;101588.59;4892038;29;20020;-77
2022/07/07 07:08:56;;;;;;;1.75;0.40;;;;;;;18.93;64.06;101583.41;4886975;29;20052;-77
2022/07/07 07:11:22;;;;;;;2.30;0.50;;;;;;;18.94;64.08;101589.75;4905994;29;20099;-77
2022/07/07 07:13:48;;;;;;;2.70;0.63;;;;;;;18.96;64.13;101593.09;4907158;29;20101;-77
2022/07/07 07:16:17;;;;;;;0.98;0.47;;;;;;;18.95;64.52;101603.34;4866622;29;20035;-76
2022/07/07 07:18:43;;;;;;;0.45;0.35;;;;;;;18.87;64.26;101603.97;4920203;29;20060;-77
2022/07/07 07:21:08;;;;;;;0.95;0.57;;;;;;;18.82;63.55;101606.75;4886725;29;20029;-77
2022/07/07 07:23:37;;;;;;;1.85;0.50;;;;;;;18.82;62.84;101610.38;4903620;29;20059;-77
2022/07/07 07:26:03;;;;;;;0.90;0.60;;;;;;;18.90;62.34;101611.72;4904385;29;20028;-76
2022/07/07 07:28:29;;;;;;;1.35;0.70;;;;;;;18.97;61.53;101617.72;4905997;29;20032;-77
2022/07/07 07:30:54;;;;;;;4.00;0.60;;;;;;;18.96;61.28;101604.97;4922862;29;20089;-76
2022/07/07 07:33:19;;;;;;;1.98;0.80;;;;;;;19.11;61.05;101622.56;4911305;29;20032;-77
2022/07/07 07:35:45;;;;;;;1.90;0.65;;;;;;;19.11;60.41;101628.09;4906378;29;20034;-77
2022/07/07 07:38:10;;;;;;;1.10;0.60;;;;;;;19.06;60.88;101636.50;4864294;29;20119;-75
2022/07/07 07:40:38;;;;;;;3.85;0.77;;;;;;;19.15;60.72;101632.75;4906906;29;20051;-76
2022/07/07 07:43:04;;;;;;;0.73;0.60;;;;;;;19.15;60.44;101623.63;4905212;29;20056;-77
2022/07/07 07:45:29;;;;;;;2.40;0.80;;;;;;;19.27;60.34;101648.97;4908126;29;20087;-76
2022/07/07 07:47:56;;;;;;;0.70;0.60;;;;;;;19.46;60.35;101642.66;4902669;29;20047;-77
2022/07/07 07:50:24;;;;;;;0.85;0.65;;;;;;;19.67;60.13;101649.59;4905666;29;20873;-77
2022/07/07 07:52:50;;;;;;;1.15;0.73;;;;;;;19.82;59.12;101661.66;4870768;29;20031;-75
2022/07/07 07:55:18;;;;;;;2.15;0.90;;;;;;;19.94;58.78;101648.16;4889046;29;20399;-76
2022/07/07 07:57:44;;;;;;;1.92;0.63;;;;;;;19.99;58.62;101653.63;4907147;29;20534;-76
2022/07/07 08:00:13;;;;;;;3.70;0.90;;;;;;;20.02;58.42;101658.59;4906212;29;20520;-74
2022/07/07 08:02:40;;;;;;;1.33;0.70;;;;;;;19.85;58.39;101670.19;4904610;29;20036;-76
2022/07/07 08:05:06;;;;;;;3.05;0.65;;;;;;;19.64;58.99;101669.63;4906472;29;20025;-75
2022/07/07 08:07:32;;;;;;;1.80;0.75;;;;;;;19.61;59.58;101681.31;4905696;29;20028;-76
2022/07/07 08:09:59;;;;;;;1.23;0.63;;;;;;;19.73;58.99;101689.22;4902724;29;20024;-75
2022/07/07 08:12:24;;;;;;;11.60;0.95;;;;;;;19.85;59.26;101691.59;4915058;29;20069;-77
2022/07/07 08:14:53;;;;;;;5.82;0.52;;;;;;;19.93;58.36;101677.06;4922701;29;20058;-77
2022/07/07 08:17:18;;;;;;;0.98;0.57;;;;;;;20.00;58.43;101691.34;4888511;29;20471;-76
2022/07/07 08:19:44;;;;;;;2.15;0.73;;;;;;;20.11;58.38;101699.56;4909320;29;20032;-76
2022/07/07 08:22:10;;;;;;;3.55;0.63;;;;;;;20.20;57.42;101695.81;4905799;29;20047;-77
2022/07/07 08:24:36;;;;;;;0.35;0.30;;;;;;;20.12;57.93;101684.53;4923638;29;20028;-77
2022/07/07 08:27:03;;;;;;;1.45;0.45;;;;;;;20.22;57.40;101695.50;4904393;29;20644;-77
2022/07/07 08:29:30;;;;;;;0.85;0.52;;;;;;;20.35;56.82;101699.47;4920341;29;20106;-76
2022/07/07 08:31:56;;;;;;;1.45;0.40;;;;;;;20.55;56.50;101698.34;4905700;29;20088;-76
2022/07/07 08:34:21;;;;;;;0.68;0.40;;;;;;;20.79;56.14;101698.22;4889310;29;20455;-76
2022/07/07 08:36:56;;;;;;;0.90;0.22;;;;;;;20.86;55.65;101697.84;4889756;29;20036;-76
2022/07/07 08:39:24;;;;;;;2.33;0.60;;;;;;;20.78;55.22;101690.19;4875580;29;20028;-74
2022/07/07 08:41:51;;;;;;;1.05;0.50;;;;;;;20.92;55.26;101696.59;4904240;29;20621;-78
2022/07/07 08:44:18;;;;;;;2.40;0.70;;;;;;;21.10;54.84;101698.50;4923702;29;20137;-77
2022/07/07 08:46:44;;;;;;;0.85;0.43;;;;;;;21.23;54.62;101696.88;4907203;29;20024;-78
2022/07/07 08:49:10;;;;;;;2.55;0.68;;;;;;;21.37;54.05;101699.66;4923400;29;20031;-77
2022/07/07 08:51:44;;;;;;;1.58;0.52;;;;;;;21.40;53.75;101707.38;4914282;29;20052;-77
2022/07/07 08:54:12;;;;;;;2.20;0.65;;;;;;;21.16;53.59;101713.16;4876539;29;20052;-79
2022/07/07 08:56:41;;;;;;;1.98;0.50;;;;;;;21.24;53.69;101714.38;4913791;29;20061;-78
2022/07/07 08:59:09;;;;;;;0.70;0.38;;;;;;;21.57;52.93;101717.94;4914465;29;20123;-75
2022/07/07 09:01:36;;;;;;;0.40;0.35;;;;;;;21.76;52.49;101715.03;4891102;29;20115;-76
2022/07/07 09:04:02;;;;;;;0.52;0.40;;;;;;;21.84;51.76;101721.81;4911385;29;20028;-75
2022/07/07 09:06:28;;;;;;;1.00;0.57;;;;;;;21.68;51.87;101724.09;4917860;29;20115;-75
2022/07/07 09:08:55;;;;;;;1.35;0.52;;;;;;;21.40;52.39;101726.84;4921919;29;20032;-75
2022/07/07 09:11:26;;;;;;;1.90;1.38;;;;;;;21.26;52.13;101745.47;4907007;29;20040;-75
2022/07/07 09:14:10;;;;;;;1.88;0.60;;;;;;;21.45;52.22;101737.91;4890932;29;20083;-76
2022/07/07 09:16:37;;;;;;;0.47;0.38;;;;;;;21.82;51.38;101728.88;4910102;29;20031;-76
2022/07/07 09:19:09;;;;;;;1.83;0.40;;;;;;;22.00;49.84;101739.03;4906355;29;20028;-75
2022/07/07 09:21:34;;;;;;;3.38;0.60;;;;;;;22.24;49.95;101741.56;4893802;29;20052;-74
2022/07/07 09:24:03;;;;;;;0.50;0.17;;;;;;;22.57;48.93;101737.78;4892274;29;20071;-75
2022/07/07 09:26:35;;;;;;;1.27;0.50;;;;;;;23.34;47.76;101733.03;4905658;29;20049;-74
2022/07/07 09:29:00;;;;;;;0.50;0.35;;;;;;;23.67;45.94;101749.38;4914414;29;20027;-74
2022/07/07 09:31:46;;;;;;;0.55;0.20;;;;;;;23.64;45.29;101742.50;4904751;29;20064;-75
2022/07/07 09:34:12;;;;;;;0.63;0.22;;;;;;;24.10;45.32;101751.50;4896597;29;20031;-76
2022/07/07 09:39:21;;;;;;;0.90;0.38;;;;;;;24.77;43.10;101748.59;4894860;29;20047;-75
2022/07/07 09:41:47;;;;;;;0.55;0.17;;;;;;;24.78;41.49;101750.22;4889628;29;20387;-76
2022/07/07 09:44:12;;;;;;;0.35;0.28;;;;;;;24.91;41.05;101758.44;4904480;29;20033;-76
2022/07/07 09:46:38;;;;;;;0.30;0.20;;;;;;;25.05;40.75;101754.63;4905327;29;20024;-76
2022/07/07 09:49:10;;;;;;;0.47;0.20;;;;;;;25.55;40.52;101762.41;4889392;29;20036;-75
2022/07/07 09:51:35;;;;;;;0.20;0.20;;;;;;;25.98;39.45;101759.69;4905608;29;20028;-75
2022/07/07 09:54:08;;;;;;;0.75;0.30;;;;;;;26.16;38.39;101766.06;4892088;29;20028;-76
2022/07/07 09:56:36;;;;;;;0.45;0.20;;;;;;;26.21;38.89;101765.84;4911957;29;20028;-75
2022/07/07 09:59:06;;;;;;;0.40;0.20;;;;;;;26.26;38.28;101763.66;4906252;29;20028;-75
2022/07/07 10:01:35;;;;;;;1.10;0.40;;;;;;;26.08;37.82;101770.53;4906825;29;20035;-76
2022/07/07 10:04:09;;;;;;;1.10;0.40;;;;;;;25.77;39.18;101774.47;4910847;29;20027;-74
2022/07/07 10:06:37;;;;;;;0.93;0.50;;;;;;;25.52;39.36;101777.06;4906766;29;20024;-76
2022/07/07 10:09:11;;;;;;;2.42;0.75;;;;;;;25.50;39.73;101775.78;4911093;29;20035;-75
2022/07/07 10:11:39;;;;;;;0.93;0.47;;;;;;;25.80;38.44;101779.41;4923003;29;20025;-75
2022/07/07 10:14:14;;;;;;;1.23;0.20;;;;;;;25.56;39.22;101785.63;4905971;29;20115;-75
2022/07/07 10:16:41;;;;;;;0.60;0.30;;;;;;;25.59;39.13;101785.75;4925715;29;20021;-74
2022/07/07 10:19:13;;;;;;;0.82;0.30;;;;;;;25.66;38.69;101795.63;4909964;29;20088;-74
2022/07/07 10:22:04;;;;;;;4.38;0.30;;;;;;;25.30;38.77;101788.47;4908705;29;20034;-75
2022/07/07 10:24:38;;;;;;;0.82;0.30;;;;;;;24.83;39.40;101781.66;4909950;29;20032;-75
2022/07/07 10:27:07;;;;;;;0.32;0.30;;;;;;;24.68;40.65;101807.34;4895577;29;20029;-75
2022/07/07 10:30:03;;;;;;;1.63;0.60;;;;;;;24.60;41.29;101810.94;4926112;29;20036;-75
2022/07/07 10:36:39;;;;;;;;;;;;;;;;;;;;;
2022/07/07 10:40:00;;;;;;;0.80;0.35;;;;;;;24.43;41.24;101812.56;4909278;29;20118;-75
2022/07/07 10:43:07;;;;;;;0.77;0.30;;;;;;;24.49;41.65;101819.63;4909396;29;20040;-75
2022/07/07 10:45:33;;;;;;;0.30;0.30;;;;;;;25.11;40.94;101831.66;4943826;28;20607;-75
2022/07/07 10:48:39;;;;;;;0.30;0.30;;;;;;;25.91;39.71;101825.50;4925729;29;20154;-76
2022/07/07 10:51:22;;;;;;;1.35;0.30;;;;;;;26.51;38.01;101825.50;4914602;29;20131;-75
2022/07/07 10:54:10;;;;;;;0.30;0.30;;;;;;;26.76;37.46;101836.88;4915502;29;20024;-75
2022/07/07 10:56:51;;;;;;;0.70;0.40;;;;;;;27.15;37.19;101843.13;4907472;29;20435;-76
2022/07/07 11:03:08;;;;;;;;;;;;;;;;;;;;;
2022/07/07 11:05:44;;;;;;;1.05;0.60;;;;;;;27.20;36.79;101830.84;4907951;29;20143;-75
2022/07/07 11:08:47;;;;;;;1.00;0.70;;;;;;;26.73;37.80;101834.75;4907257;29;20032;-75
2022/07/07 11:11:17;;;;;;;0.95;0.40;;;;;;;26.33;37.91;101847.22;4902242;29;20084;-75
2022/07/07 11:14:20;;;;;;;0.52;0.40;;;;;;;26.09;38.31;101848.69;4903982;29;20051;-74
2022/07/07 11:17:22;;;;;;;0.95;0.40;;;;;;;25.91;38.80;101864.72;4908107;29;20115;-75
2022/07/07 11:20:05;;;;;;;1.90;0.50;;;;;;;25.67;39.27;101830.88;4902384;29;20024;-75
2022/07/07 11:22:51;;;;;;;1.98;0.52;;;;;;;25.86;39.36;101866.88;4905422;29;20115;-75
2022/07/07 11:25:55;;;;;;;1.17;0.50;;;;;;;26.14;38.74;101864.50;4908931;29;20032;-75
2022/07/07 11:28:41;;;;;;;0.93;0.47;;;;;;;26.35;38.53;101849.69;4900432;29;20064;-74
2022/07/07 11:35:21;;;;;;;4.88;0.50;;;;;;;27.60;36.24;101858.34;4851787;29;20038;-75
2022/07/07 11:38:47;;;;;;;0.30;0.30;;;;;;;27.50;36.27;101870.88;4838650;29;20050;-75
2022/07/07 11:41:13;;;;;;;1.15;0.40;;;;;;;26.95;36.50;101854.03;4856224;29;20037;-74
2022/07/07 11:43:40;;;;;;;1.02;0.50;;;;;;;26.87;37.01;101868.13;4847450;29;20422;-75
2022/07/07 11:46:45;;;;;;;0.55;0.55;;;;;;;27.02;37.56;101867.53;4894906;29;20119;-77
2022/07/07 11:49:17;;;;;;;0.57;0.47;;;;;;;27.77;36.42;101866.56;4926262;29;20048;-77